Time,TemperatureF,DewpointF,PressureIn,WindDirection,WindDirectionDegrees,WindSpeedMPH,WindSpeedGustMPH,Humidity,HourlyPrecipIn,Conditions,Clouds,dailyrainin,SolarRadiationWatts/m^2,SoftwareType,DateUTC
2013-08-19 00:00:00,73.3,70.2,30.05,NE,46,5.0,7.0,90,0.02,,,0.00,0.00,VWS V14.01,2013-08-19 04:00:00,
2013-08-19 00:01:00,72.1,68.7,30.06,West,280,2.0,9.0,89,0.00,, +RA,0.00,0.00,VWS V14.01,2013-08-19 04:01:00,
2013-08-19 00:06:00,72.0,68.9,30.06,NNE,13,0.0,5.0,90,0.00,, +RA,0.00,0.00,VWS V14.01,2013-08-19 04:06:00,
2013-08-19 00:11:00,72.1,68.7,30.06,ESE,114,2.0,5.0,89,0.00,, +RA,0.00,0.00,VWS V14.01,2013-08-19 04:11:00,
2013-08-19 00:16:00,72.5,69.4,30.07,ESE,123,2.0,5.0,90,0.00,, +RA,0.00,0.00,VWS V14.01,2013-08-19 04:16:00,
2013-08-19 00:21:00,72.3,68.6,30.07,SE,138,0.0,5.0,88,0.00,, +RA,0.00,0.00,VWS V14.01,2013-08-19 04:21:00,
2013-08-19 00:26:00,72.3,68.6,30.07,SSE,155,0.0,5.0,88,0.00,, +RA,0.00,0.00,VWS V14.01,2013-08-19 04:26:00,
2013-08-19 00:30:00,73.2,69.1,30.06,NNE,13,7.0,9.0,87,0.01,,,0.00,0.00,VWS V14.01,2013-08-19 04:30:00,
2013-08-19 00:31:00,72.3,68.6,30.07,East,95,3.0,3.0,88,0.02,, +RA,0.02,0.00,VWS V14.01,2013-08-19 04:31:00,
2013-08-19 00:36:00,72.3,69.2,30.07,ESE,110,4.0,6.0,90,0.03,, +RA,0.03,0.00,VWS V14.01,2013-08-19 04:36:00,
2013-08-19 00:41:00,71.8,68.4,30.07,SE,136,2.0,6.0,89,0.05,, +RA,0.05,0.00,VWS V14.01,2013-08-19 04:41:00,
2013-08-19 00:46:00,71.3,67.9,30.07,SE,142,0.0,6.0,89,0.08,, +RA,0.08,0.00,VWS V14.01,2013-08-19 04:46:00,
2013-08-19 00:51:00,70.9,67.8,30.07,ESE,113,4.0,7.0,90,0.10,, +RA,0.10,0.00,VWS V14.01,2013-08-19 04:51:00,
2013-08-19 00:56:00,70.9,68.5,30.07,ESE,120,1.0,7.0,92,0.13,, +RA,0.13,0.00,VWS V14.01,2013-08-19 04:56:00,
2013-08-19 01:00:00,72.1,68.7,30.06,West,280,2.0,9.0,89,0.00,,,0.00,0.00,VWS V14.01,2013-08-19 05:00:00,
2013-08-19 01:01:00,70.8,68.4,30.07,ESE,121,2.0,2.0,92,0.14,,RA,0.14,0.00,VWS V14.01,2013-08-19 05:01:00,
2013-08-19 01:06:00,70.8,68.4,30.07,ESE,121,0.0,3.0,92,0.17,,RA,0.17,0.00,VWS V14.01,2013-08-19 05:06:00,
2013-08-19 01:11:00,70.6,68.2,30.07,ESE,121,3.0,3.0,92,0.21,,RA,0.21,0.00,VWS V14.01,2013-08-19 05:11:00,
2013-08-19 01:16:00,70.4,68.0,30.06,ESE,121,0.0,3.0,92,0.23,,RA,0.23,0.00,VWS V14.01,2013-08-19 05:16:00,
2013-08-19 01:21:00,70.6,68.5,30.06,NNE,28,4.0,6.0,93,0.28,,RA,0.28,0.00,VWS V14.01,2013-08-19 05:21:00,
2013-08-19 01:26:00,70.6,68.2,30.06,NNE,12,3.0,6.0,92,0.33,,RA,0.33,0.00,VWS V14.01,2013-08-19 05:26:00,
2013-08-19 01:30:00,72.3,68.6,30.07,East,92,2.0,5.0,88,0.02,,,0.02,0.00,VWS V14.01,2013-08-19 05:30:00,
2013-08-19 01:31:00,70.6,68.5,30.06,NNE,14,3.0,6.0,93,0.37,,RA,0.37,0.00,VWS V14.01,2013-08-19 05:31:00,
2013-08-19 01:36:00,70.8,68.7,30.06,NNE,14,1.0,4.0,93,0.39,,RA,0.41,0.00,VWS V14.01,2013-08-19 05:36:00,
2013-08-19 01:41:00,70.6,68.5,30.06,NE,44,4.0,5.0,93,0.44,,-RA,0.46,0.00,VWS V14.01,2013-08-19 05:41:00,
2013-08-19 01:46:00,70.6,68.8,30.05,NE,37,4.0,5.0,94,0.48,,-RA,0.50,0.00,VWS V14.01,2013-08-19 05:46:00,
2013-08-19 01:51:00,70.6,68.8,30.05,NE,37,4.0,5.0,94,0.49,,-RA,0.51,0.00,VWS V14.01,2013-08-19 05:51:00,
2013-08-19 01:56:00,70.8,69.3,30.05,NE,40,6.0,8.0,95,0.51,,-RA,0.53,0.00,VWS V14.01,2013-08-19 05:56:00,
2013-08-19 02:00:00,70.8,69.3,30.05,NE,52,4.0,8.0,95,0.51,,RA,0.53,0.00,VWS V14.01,2013-08-19 06:00:00,
2013-08-19 02:05:00,70.9,69.1,30.05,NE,55,5.0,6.0,94,0.41,,RA,0.55,0.00,VWS V14.01,2013-08-19 06:05:00,
2013-08-19 02:11:00,70.9,69.1,30.05,NE,56,4.0,6.0,94,0.42,,RA,0.56,0.00,VWS V14.01,2013-08-19 06:11:00,
2013-08-19 02:16:00,70.9,69.1,30.04,NE,40,5.0,7.0,94,0.43,,RA,0.57,0.00,VWS V14.01,2013-08-19 06:16:00,
2013-08-19 02:20:00,70.9,69.1,30.04,NNE,27,7.0,7.0,94,0.43,,RA,0.57,0.00,VWS V14.01,2013-08-19 06:20:00,
2013-08-19 02:25:00,70.8,69.0,30.04,NE,39,4.0,9.0,94,0.44,,RA,0.58,0.00,VWS V14.01,2013-08-19 06:25:00,
2013-08-19 02:30:00,70.8,69.0,30.04,NE,41,5.0,9.0,94,0.45,,RA,0.59,0.00,VWS V14.01,2013-08-19 06:30:00,
2013-08-19 02:35:00,70.8,69.0,30.04,NNE,19,4.0,6.0,94,0.22,,RA,0.59,0.00,VWS V14.01,2013-08-19 06:35:00,
2013-08-19 02:40:00,70.8,69.0,30.04,NE,48,4.0,7.0,94,0.24,,RA,0.61,0.00,VWS V14.01,2013-08-19 06:40:00,
2013-08-19 02:45:00,70.6,68.5,30.03,NNE,22,5.0,8.0,93,0.24,,RA,0.61,0.00,VWS V14.01,2013-08-19 06:45:00,
2013-08-19 02:50:00,70.8,68.7,30.03,NE,46,5.0,8.0,93,0.24,,RA,0.61,0.00,VWS V14.01,2013-08-19 06:50:00,
2013-08-19 02:55:00,70.8,68.7,30.03,North,9,7.0,8.0,93,0.25,,RA,0.62,0.00,VWS V14.01,2013-08-19 06:55:00,
2013-08-19 03:00:00,70.8,68.7,30.03,North,5,6.0,8.0,93,0.26,,-RA,0.63,0.00,VWS V14.01,2013-08-19 07:00:00,
2013-08-19 03:05:00,70.8,68.7,30.03,NW,326,3.0,10.0,93,0.10,,-RA,0.63,0.00,VWS V14.01,2013-08-19 07:05:00,
2013-08-19 03:10:00,70.6,68.5,30.03,NW,319,6.0,10.0,93,0.10,,-RA,0.63,0.00,VWS V14.01,2013-08-19 07:10:00,
2013-08-19 03:15:00,70.1,68.3,30.02,NW,309,5.0,10.0,94,0.10,,-RA,0.63,0.00,VWS V14.01,2013-08-19 07:15:00,
2013-08-19 03:20:00,69.8,68.0,30.02,NW,308,2.0,10.0,94,0.10,,-RA,0.63,0.00,VWS V14.01,2013-08-19 07:20:00,
2013-08-19 03:25:00,69.8,68.3,30.02,NW,309,6.0,10.0,95,0.11,,-RA,0.64,0.00,VWS V14.01,2013-08-19 07:25:00,
2013-08-19 03:30:00,69.6,68.1,30.03,WNW,292,3.0,10.0,95,0.12,,-RA,0.65,0.00,VWS V14.01,2013-08-19 07:30:00,
2013-08-19 03:35:00,69.6,68.1,30.03,NNW,337,4.0,7.0,95,0.08,,-RA,0.67,0.00,VWS V14.01,2013-08-19 07:35:00,
2013-08-19 03:40:00,69.6,68.4,30.03,NE,35,7.0,7.0,96,0.10,,-RA,0.69,0.00,VWS V14.01,2013-08-19 07:40:00,
2013-08-19 03:45:00,70.1,68.9,30.02,NE,40,5.0,7.0,96,0.12,,-RA,0.71,0.00,VWS V14.01,2013-08-19 07:45:00,
2013-08-19 03:50:00,70.3,69.1,30.02,NNE,21,5.0,7.0,96,0.14,,-RA,0.73,0.00,VWS V14.01,2013-08-19 07:50:00,
2013-08-19 03:55:00,70.6,69.7,30.02,North,5,7.0,7.0,97,0.16,,-RA,0.75,0.00,VWS V14.01,2013-08-19 07:55:00,
2013-08-19 04:00:00,70.3,69.1,30.02,West,279,4.0,7.0,96,0.20,, +RA,0.79,0.00,VWS V14.01,2013-08-19 08:00:00,
2013-08-19 04:05:00,69.9,68.4,30.02,NW,311,5.0,7.0,95,0.20,, +RA,0.83,0.00,VWS V14.01,2013-08-19 08:05:00,
2013-08-19 04:10:00,69.8,68.6,30.02,WNW,291,5.0,7.0,96,0.20,, +RA,0.83,0.00,VWS V14.01,2013-08-19 08:10:00,
2013-08-19 04:15:00,69.6,68.4,30.02,NW,306,5.0,11.0,96,0.22,, +RA,0.85,0.00,VWS V14.01,2013-08-19 08:15:00,
2013-08-19 04:20:00,69.3,68.1,30.02,NW,325,4.0,11.0,96,0.24,, +RA,0.87,0.00,VWS V14.01,2013-08-19 08:20:00,
2013-08-19 04:25:00,69.3,68.1,30.02,NW,304,7.0,11.0,96,0.26,, +RA,0.89,0.00,VWS V14.01,2013-08-19 08:25:00,
2013-08-19 04:30:00,69.4,68.5,30.00,NNW,330,11.0,11.0,97,0.28,, +RA,0.91,0.00,VWS V14.01,2013-08-19 08:30:00,
2013-08-19 04:35:00,69.4,68.5,30.00,NW,312,5.0,12.0,97,0.26,, +RA,0.91,0.00,VWS V14.01,2013-08-19 08:35:00,
2013-08-19 04:40:00,69.6,68.4,30.00,NNW,333,8.0,12.0,96,0.26,, +RA,0.91,0.00,VWS V14.01,2013-08-19 08:40:00,
2013-08-19 04:45:00,69.4,68.2,30.00,NW,326,9.0,12.0,96,0.28,, +RA,0.93,0.00,VWS V14.01,2013-08-19 08:45:00,
2013-08-19 04:50:00,69.9,69.0,30.00,NNW,346,9.0,12.0,97,0.30,, +RA,0.95,0.00,VWS V14.01,2013-08-19 08:50:00,
2013-08-19 04:55:00,70.1,68.9,30.00,NW,326,6.0,12.0,96,0.31,, +RA,0.96,0.00,VWS V14.01,2013-08-19 08:55:00,
2013-08-19 05:00:00,69.8,68.6,30.00,WNW,295,9.0,12.0,96,0.31,,-RA,0.96,0.00,VWS V14.01,2013-08-19 09:00:00,
2013-08-19 05:05:00,69.9,68.7,30.00,North,355,6.0,11.0,96,0.17,,-RA,0.96,0.00,VWS V14.01,2013-08-19 09:05:00,
2013-08-19 05:10:00,70.3,69.4,30.00,NNW,348,7.0,11.0,97,0.17,,-RA,0.96,0.00,VWS V14.01,2013-08-19 09:10:00,
2013-08-19 05:15:00,70.4,69.2,30.00,NNW,347,3.0,16.0,96,0.17,,-RA,0.96,0.00,VWS V14.01,2013-08-19 09:15:00,
2013-08-19 05:20:00,70.4,68.9,30.00,North,11,8.0,16.0,95,0.17,,-RA,0.96,0.00,VWS V14.01,2013-08-19 09:20:00,
2013-08-19 05:25:00,70.1,68.6,30.00,NNW,342,6.0,16.0,95,0.17,,-RA,0.96,0.00,VWS V14.01,2013-08-19 09:25:00,
2013-08-19 05:30:00,70.3,68.8,30.00,North,5,8.0,16.0,95,0.17,,-RA,0.96,0.00,VWS V14.01,2013-08-19 09:30:00,
2013-08-19 05:35:00,70.3,68.5,30.00,North,360,8.0,11.0,94,0.05,,-RA,0.96,0.00,VWS V14.01,2013-08-19 09:35:00,
2013-08-19 05:40:00,70.4,68.9,30.00,NE,36,10.0,11.0,95,0.05,,-RA,0.96,0.00,VWS V14.01,2013-08-19 09:40:00,
2013-08-19 05:45:00,70.4,68.6,29.99,NNE,20,6.0,12.0,94,0.05,,-RA,0.96,0.00,VWS V14.01,2013-08-19 09:45:00,
2013-08-19 05:50:00,70.4,68.6,29.99,NNE,13,7.0,12.0,94,0.05,,-RA,0.96,0.00,VWS V14.01,2013-08-19 09:50:00,
2013-08-19 05:55:00,70.4,68.3,29.99,NNE,26,7.0,12.0,93,0.05,,-RA,0.96,0.00,VWS V14.01,2013-08-19 09:55:00,
2013-08-19 06:00:00,70.4,68.6,29.99,NNE,17,7.0,12.0,94,0.05,,OVC004,0.96,0.00,VWS V14.01,2013-08-19 10:00:00,
2013-08-19 06:05:00,70.4,68.3,29.99,NE,36,5.0,10.0,93,0.00,,OVC004,0.96,0.00,VWS V14.01,2013-08-19 10:05:00,
2013-08-19 06:10:00,70.6,68.5,29.99,NNE,23,8.0,11.0,93,0.00,,OVC004,0.96,0.00,VWS V14.01,2013-08-19 10:10:00,
2013-08-19 06:15:00,70.8,68.7,29.99,NNE,19,6.0,11.0,93,0.00,,OVC004,0.96,0.00,VWS V14.01,2013-08-19 10:15:00,
2013-08-19 06:20:00,70.8,68.7,29.99,NE,46,6.0,11.0,93,0.00,,OVC004,0.96,0.00,VWS V14.01,2013-08-19 10:20:00,
2013-08-19 06:25:00,70.8,68.7,29.99,NE,52,6.0,11.0,93,0.00,,OVC004,0.96,0.00,VWS V14.01,2013-08-19 10:25:00,
2013-08-19 06:30:00,70.8,68.4,29.99,NE,38,5.0,11.0,92,0.00,,OVC004,0.96,0.00,VWS V14.01,2013-08-19 10:30:00,
2013-08-19 06:35:00,70.6,68.2,29.99,NE,36,3.0,9.0,92,0.00,,OVC004,0.96,0.00,VWS V14.01,2013-08-19 10:35:00,
2013-08-19 06:40:00,70.8,68.4,29.99,NE,49,5.0,9.0,92,0.03,,-RA,0.99,0.00,VWS V14.01,2013-08-19 10:40:00,
2013-08-19 06:45:00,70.6,67.8,30.00,NE,48,2.0,9.0,91,0.06,,-RA,1.02,0.00,VWS V14.01,2013-08-19 10:45:00,
2013-08-19 06:50:00,70.6,68.2,30.00,NNE,19,4.0,9.0,92,0.11,,-RA,1.07,0.00,VWS V14.01,2013-08-19 10:50:00,
2013-08-19 06:55:00,70.6,68.8,30.00,NNW,338,2.0,9.0,94,0.16,,-RA,1.12,0.00,VWS V14.01,2013-08-19 10:55:00,
2013-08-19 07:00:00,70.1,68.0,30.00,West,281,4.0,9.0,93,0.20,,-RA,1.16,0.00,VWS V14.01,2013-08-19 11:00:00,
2013-08-19 07:05:00,69.8,68.0,30.00,West,273,0.0,4.0,94,0.23,,-RA,1.19,0.00,VWS V14.01,2013-08-19 11:05:00,
2013-08-19 07:10:00,69.8,68.6,30.00,North,5,3.0,7.0,96,0.28,,-RA,1.24,0.00,VWS V14.01,2013-08-19 11:10:00,
2013-08-19 07:15:00,69.6,68.1,30.00,NNW,335,9.0,12.0,95,0.31,,-RA,1.27,0.00,VWS V14.01,2013-08-19 11:15:00,
2013-08-19 07:20:00,69.3,67.8,30.00,NNW,340,7.0,12.0,95,0.32,,RA,1.28,0.00,VWS V14.01,2013-08-19 11:20:00,
2013-08-19 07:25:00,69.1,67.6,30.00,West,268,3.0,12.0,95,0.35,,RA,1.31,0.00,VWS V14.01,2013-08-19 11:25:00,
2013-08-19 07:30:00,68.9,67.7,30.01,WNW,286,4.0,12.0,96,0.39,,RA,1.35,0.00,VWS V14.01,2013-08-19 11:30:00,
2013-08-19 07:35:00,69.3,68.4,30.01,NW,306,7.0,7.0,97,0.44,,RA,1.40,7.00,VWS V14.01,2013-08-19 11:35:00,
2013-08-19 07:40:00,68.9,67.7,30.01,NW,321,5.0,7.0,96,0.45,, +RA,1.41,9.00,VWS V14.01,2013-08-19 11:40:00,
2013-08-19 07:45:00,68.9,67.7,30.01,WNW,294,5.0,7.0,96,0.45,, +RA,1.41,12.00,VWS V14.01,2013-08-19 11:45:00,
2013-08-19 07:50:00,68.9,68.0,30.01,NW,304,9.0,9.0,97,0.46,, +RA,1.42,14.00,VWS V14.01,2013-08-19 11:50:00,
2013-08-19 07:55:00,68.8,67.9,30.01,NW,310,6.0,9.0,97,0.47,, +RA,1.43,16.00,VWS V14.01,2013-08-19 11:55:00,
2013-08-19 08:00:00,68.6,67.4,30.02,WNW,293,6.0,10.0,96,0.48,, +RA,1.44,18.00,VWS V14.01,2013-08-19 12:00:00,
2013-08-19 08:05:00,68.8,67.9,30.02,WNW,291,4.0,7.0,97,0.30,,RA,1.47,21.00,VWS V14.01,2013-08-19 12:05:00,
2013-08-19 08:10:00,68.8,67.9,30.02,NW,304,5.0,10.0,97,0.32,,RA,1.49,21.00,VWS V14.01,2013-08-19 12:10:00,
2013-08-19 08:15:00,68.8,67.9,30.02,WNW,285,1.0,10.0,97,0.33,,RA,1.50,25.00,VWS V14.01,2013-08-19 12:15:00,
2013-08-19 08:20:00,68.9,68.0,30.02,NW,316,4.0,10.0,97,0.35,,RA,1.52,33.00,VWS V14.01,2013-08-19 12:20:00,
2013-08-19 08:25:00,69.3,68.4,30.02,NNW,336,3.0,10.0,97,0.35,,RA,1.52,37.00,VWS V14.01,2013-08-19 12:25:00,
2013-08-19 08:30:00,69.8,68.9,30.02,North,5,4.0,10.0,97,0.36,,RA,1.53,40.00,VWS V14.01,2013-08-19 12:30:00,
2013-08-19 08:35:00,70.1,69.2,30.02,NNE,27,4.0,6.0,97,0.19,,RA,1.54,44.00,VWS V14.01,2013-08-19 12:35:00,
2013-08-19 08:40:00,70.1,69.2,30.02,NNE,27,5.0,8.0,97,0.19,,RA,1.54,84.00,VWS V14.01,2013-08-19 12:40:00,
2013-08-19 08:45:00,70.1,69.2,30.02,NE,44,6.0,8.0,97,0.19,,RA,1.54,107.00,VWS V14.01,2013-08-19 12:45:00,
2013-08-19 08:50:00,70.1,68.9,30.02,NE,53,4.0,9.0,96,0.20,,RA,1.55,127.00,VWS V14.01,2013-08-19 12:50:00,
2013-08-19 08:55:00,70.1,68.6,30.02,NE,42,3.0,9.0,95,0.20,,RA,1.55,146.00,VWS V14.01,2013-08-19 12:55:00,
2013-08-19 09:00:00,70.3,68.8,30.01,ENE,66,3.0,9.0,95,0.20,,RA,1.55,144.00,VWS V14.01,2013-08-19 13:00:00,
2013-08-19 09:05:00,70.1,68.3,30.01,ENE,60,3.0,7.0,94,0.11,,-RA,1.55,137.00,VWS V14.01,2013-08-19 13:05:00,
2013-08-19 09:10:00,70.1,68.0,30.01,East,84,3.0,7.0,93,0.11,,-RA,1.55,130.00,VWS V14.01,2013-08-19 13:10:00,
2013-08-19 09:15:00,70.1,67.7,30.02,ESE,105,3.0,7.0,92,0.11,,-RA,1.55,104.00,VWS V14.01,2013-08-19 13:15:00,
2013-08-19 09:20:00,70.1,67.4,30.02,East,89,0.0,7.0,91,0.11,, +RA,1.55,56.00,VWS V14.01,2013-08-19 13:20:00,
2013-08-19 09:25:00,70.4,68.0,30.02,ENE,78,5.0,7.0,92,0.11,, +RA,1.55,69.00,VWS V14.01,2013-08-19 13:25:00,
2013-08-19 09:30:00,70.4,67.7,30.02,East,101,1.0,8.0,91,0.11,, +RA,1.55,86.00,VWS V14.01,2013-08-19 13:30:00,
2013-08-19 09:35:00,70.4,67.3,30.02,East,85,4.0,9.0,90,0.02,, +RA,1.55,95.00,VWS V14.01,2013-08-19 13:35:00,
2013-08-19 09:40:00,70.6,67.8,30.02,ESE,112,1.0,9.0,91,0.02,, +RA,1.55,91.00,VWS V14.01,2013-08-19 13:40:00,
2013-08-19 09:45:00,70.6,67.5,30.03,ESE,112,0.0,9.0,90,0.03,, +RA,1.56,79.00,VWS V14.01,2013-08-19 13:45:00,
2013-08-19 09:50:00,70.6,67.5,30.03,ESE,115,1.0,9.0,90,0.03,, +RA,1.56,93.00,VWS V14.01,2013-08-19 13:50:00,
2013-08-19 09:55:00,70.6,67.8,30.03,SE,125,0.0,9.0,91,0.03,, +RA,1.56,98.00,VWS V14.01,2013-08-19 13:55:00,
2013-08-19 10:00:00,70.8,68.1,30.03,SE,125,0.0,9.0,91,0.03,, +RA,1.56,81.00,VWS V14.01,2013-08-19 14:00:00,
2013-08-19 10:05:00,70.6,67.5,30.03,SE,125,0.0,4.0,90,0.01,,RA,1.56,79.00,VWS V14.01,2013-08-19 14:05:00,
2013-08-19 10:10:00,70.8,68.1,30.03,SE,125,2.0,4.0,91,0.01,,RA,1.56,105.00,VWS V14.01,2013-08-19 14:10:00,
2013-08-19 10:15:00,70.8,67.7,30.04,East,98,2.0,5.0,90,0.01,,RA,1.56,125.00,VWS V14.01,2013-08-19 14:15:00,
2013-08-19 10:20:00,70.8,68.1,30.04,East,98,2.0,5.0,91,0.01,,-RA,1.56,118.00,VWS V14.01,2013-08-19 14:20:00,
2013-08-19 10:25:00,70.8,67.7,30.04,East,98,0.0,5.0,90,0.01,,-RA,1.56,95.00,VWS V14.01,2013-08-19 14:25:00,
2013-08-19 10:30:00,70.8,67.7,30.04,East,90,0.0,5.0,90,0.01,,-RA,1.56,135.00,VWS V14.01,2013-08-19 14:30:00,
2013-08-19 10:35:00,70.6,67.5,30.04,East,90,4.0,4.0,90,0.01,,-RA,1.56,151.00,VWS V14.01,2013-08-19 14:35:00,
2013-08-19 10:40:00,70.6,67.5,30.04,ENE,63,4.0,5.0,90,0.02,,-RA,1.57,172.00,VWS V14.01,2013-08-19 14:40:00,
2013-08-19 10:45:00,70.6,67.5,30.04,ENE,77,0.0,5.0,90,0.02,,-RA,1.57,172.00,VWS V14.01,2013-08-19 14:45:00,
2013-08-19 10:50:00,70.8,68.1,30.04,ENE,77,0.0,5.0,91,0.02,,-RA,1.57,176.00,VWS V14.01,2013-08-19 14:50:00,
2013-08-19 10:55:00,70.8,67.7,30.04,East,82,2.0,5.0,90,0.02,,-RA,1.57,132.00,VWS V14.01,2013-08-19 14:55:00,
2013-08-19 11:00:00,71.1,68.7,30.04,ENE,66,0.0,5.0,92,0.02,,-RA,1.57,151.00,VWS V14.01,2013-08-19 15:00:00,
2013-08-19 11:05:00,70.9,68.2,30.04,ENE,63,4.0,6.0,91,0.01,,-RA,1.57,160.00,VWS V14.01,2013-08-19 15:05:00,
2013-08-19 11:10:00,70.9,67.8,30.04,ENE,70,5.0,9.0,90,0.01,,-RA,1.57,204.00,VWS V14.01,2013-08-19 15:10:00,
2013-08-19 11:15:00,71.1,68.0,30.05,NE,56,4.0,9.0,90,0.01,,-RA,1.57,278.00,VWS V14.01,2013-08-19 15:15:00,
2013-08-19 11:20:00,71.3,68.5,30.05,NE,50,5.0,9.0,91,0.01,,-RA,1.57,301.00,VWS V14.01,2013-08-19 15:20:00,
2013-08-19 11:25:00,71.3,67.9,30.05,ENE,74,1.0,9.0,89,0.01,,-RA,1.57,258.00,VWS V14.01,2013-08-19 15:25:00,
2013-08-19 11:30:00,71.3,67.9,30.05,NE,50,3.0,9.0,89,0.01,,-RA,1.57,206.00,VWS V14.01,2013-08-19 15:30:00,
2013-08-19 11:35:00,71.5,68.4,30.05,NE,55,4.0,7.0,90,0.01,,-RA,1.57,135.00,VWS V14.01,2013-08-19 15:35:00,
2013-08-19 11:40:00,71.6,68.5,30.05,ENE,65,5.0,7.0,90,0.01,,-RA,1.57,125.00,VWS V14.01,2013-08-19 15:40:00,
2013-08-19 11:45:00,71.6,68.2,30.05,NE,55,0.0,7.0,89,0.01,,-RA,1.57,192.00,VWS V14.01,2013-08-19 15:45:00,
2013-08-19 11:50:00,71.6,68.2,30.05,NE,49,2.0,7.0,89,0.01,,-RA,1.57,162.00,VWS V14.01,2013-08-19 15:50:00,
2013-08-19 11:55:00,71.8,68.4,30.05,East,80,4.0,7.0,89,0.01,,-RA,1.57,250.00,VWS V14.01,2013-08-19 15:55:00,
2013-08-19 12:00:00,72.0,68.6,30.04,East,93,3.0,7.0,89,0.01,,-RA,1.57,202.00,VWS V14.01,2013-08-19 16:00:00,
2013-08-19 12:05:00,72.1,68.7,30.04,East,97,6.0,6.0,89,0.00,,-RA,1.57,193.00,VWS V14.01,2013-08-19 16:05:00,
2013-08-19 12:10:00,72.1,68.7,30.04,East,90,4.0,10.0,89,0.00,,-RA,1.57,172.00,VWS V14.01,2013-08-19 16:10:00,
2013-08-19 12:15:00,72.1,68.7,30.04,SE,134,3.0,10.0,89,0.00,,-RA,1.57,127.00,VWS V14.01,2013-08-19 16:15:00,
2013-08-19 12:20:00,72.3,69.2,30.04,East,92,6.0,10.0,90,0.00,,-RA,1.57,149.00,VWS V14.01,2013-08-19 16:20:00,
2013-08-19 12:25:00,72.3,68.9,30.04,ESE,121,6.0,10.0,89,0.00,,OVC033,1.57,169.00,VWS V14.01,2013-08-19 16:25:00,
2013-08-19 12:30:00,72.5,69.7,30.04,SE,130,5.0,10.0,91,0.00,,OVC033,1.57,350.00,VWS V14.01,2013-08-19 16:30:00,
2013-08-19 12:35:00,72.1,69.0,30.04,SE,134,5.0,10.0,90,0.00,,OVC033,1.57,276.00,VWS V14.01,2013-08-19 16:35:00,
2013-08-19 12:40:00,71.8,68.1,30.04,SE,132,4.0,10.0,88,0.00,,OVC017,1.57,264.00,VWS V14.01,2013-08-19 16:40:00,
2013-08-19 12:45:00,71.8,68.4,30.04,SSE,153,5.0,10.0,89,0.00,,OVC017,1.57,318.00,VWS V14.01,2013-08-19 16:45:00,
2013-08-19 12:50:00,71.8,67.7,30.04,SSE,153,11.0,11.0,87,0.00,,OVC017,1.57,306.00,VWS V14.01,2013-08-19 16:50:00,
2013-08-19 12:55:00,71.6,67.5,30.04,ESE,111,5.0,11.0,87,0.00,,OVC017,1.57,380.00,VWS V14.01,2013-08-19 16:55:00,
2013-08-19 13:00:00,72.0,67.9,30.04,SE,129,4.0,11.0,87,0.00,,OVC017,1.57,506.00,VWS V14.01,2013-08-19 17:00:00,
2013-08-19 13:05:00,72.1,68.0,30.04,SSE,155,6.0,6.0,87,0.00,,-RA,1.57,415.00,VWS V14.01,2013-08-19 17:05:00,
2013-08-19 13:10:00,72.3,68.2,30.04,SE,140,3.0,8.0,87,0.00,,-RA,1.57,257.00,VWS V14.01,2013-08-19 17:10:00,
2013-08-19 13:15:00,72.1,68.0,30.04,SE,126,5.0,9.0,87,0.00,,-RA,1.57,304.00,VWS V14.01,2013-08-19 17:15:00,
2013-08-19 13:20:00,72.1,68.7,30.04,ESE,121,1.0,9.0,89,0.00,,-RA,1.57,388.00,VWS V14.01,2013-08-19 17:20:00,
2013-08-19 13:25:00,72.1,68.3,30.04,SE,140,5.0,9.0,88,0.00,,-RA,1.57,246.00,VWS V14.01,2013-08-19 17:25:00,
2013-08-19 13:30:00,72.0,68.3,30.03,SE,144,4.0,9.0,88,0.00,,-RA,1.57,327.00,VWS V14.01,2013-08-19 17:30:00,
2013-08-19 13:35:00,72.0,68.3,30.03,SSE,150,3.0,5.0,88,0.00,,-RA,1.57,325.00,VWS V14.01,2013-08-19 17:35:00,
2013-08-19 13:40:00,72.3,68.6,30.03,SSE,150,0.0,5.0,88,0.00,,OVC041,1.57,529.00,VWS V14.01,2013-08-19 17:40:00,
2013-08-19 13:45:00,72.8,68.7,30.03,SE,131,1.0,5.0,87,0.00,,OVC041,1.57,510.00,VWS V14.01,2013-08-19 17:45:00,
2013-08-19 13:50:00,73.2,69.1,30.03,SE,131,0.0,5.0,87,0.00,,OVC041,1.57,432.00,VWS V14.01,2013-08-19 17:50:00,
2013-08-19 13:55:00,73.5,69.4,30.03,SE,131,1.0,5.0,87,0.00,,OVC041,1.57,410.00,VWS V14.01,2013-08-19 17:55:00,
2013-08-19 14:00:00,73.7,68.9,30.02,SE,131,0.0,5.0,85,0.00,,OVC041,1.57,443.00,VWS V14.01,2013-08-19 18:00:00,
2013-08-19 14:05:00,73.5,68.4,30.02,ESE,115,0.0,6.0,84,0.00,,OVC039,1.57,445.00,VWS V14.01,2013-08-19 18:05:00,
2013-08-19 14:10:00,73.9,68.8,30.02,ESE,123,0.0,6.0,84,0.00,,OVC039,1.57,434.00,VWS V14.01,2013-08-19 18:10:00,
2013-08-19 14:15:00,74.2,68.7,30.02,ESE,123,0.0,6.0,83,0.00,,OVC039,1.57,478.00,VWS V14.01,2013-08-19 18:15:00,
2013-08-19 14:20:00,74.6,69.1,30.02,ESE,123,0.0,6.0,83,0.00,,OVC039,1.57,707.00,VWS V14.01,2013-08-19 18:20:00,
2013-08-19 14:25:00,74.9,67.9,30.02,ESE,123,3.0,6.0,79,0.00,,OVC039,1.57,615.00,VWS V14.01,2013-08-19 18:25:00,
2013-08-19 14:30:00,74.7,67.8,30.02,ESE,123,0.0,6.0,79,0.00,,OVC039,1.57,531.00,VWS V14.01,2013-08-19 18:30:00,
2013-08-19 14:35:00,74.7,68.1,30.01,ESE,123,0.0,4.0,80,0.00,,OVC039,1.57,381.00,VWS V14.01,2013-08-19 18:35:00,
2013-08-19 14:40:00,74.7,68.1,30.01,ESE,123,0.0,4.0,80,0.00,,OVC039,1.57,297.00,VWS V14.01,2013-08-19 18:40:00,
2013-08-19 14:45:00,75.1,68.9,30.01,ESE,123,0.0,4.0,81,0.00,,OVC039,1.57,297.00,VWS V14.01,2013-08-19 18:45:00,
2013-08-19 14:50:00,75.4,69.2,30.01,ESE,123,0.0,4.0,81,0.00,,OVC039,1.57,313.00,VWS V14.01,2013-08-19 18:50:00,
2013-08-19 14:55:00,75.6,69.4,30.01,ESE,123,0.0,4.0,81,0.00,,OVC039,1.57,378.00,VWS V14.01,2013-08-19 18:55:00,
2013-08-19 15:00:00,76.0,69.0,30.01,ESE,123,0.0,4.0,79,0.00,,OVC039,1.57,348.00,VWS V14.01,2013-08-19 19:00:00,
2013-08-19 15:05:00,75.8,70.3,30.00,ESE,123,0.0,3.0,83,0.00,,OVC038,1.57,490.00,VWS V14.01,2013-08-19 19:05:00,
2013-08-19 15:10:00,76.0,69.8,30.00,ESE,121,3.0,4.0,81,0.00,,OVC038,1.57,452.00,VWS V14.01,2013-08-19 19:10:00,
2013-08-19 15:14:00,75.8,69.6,30.00,NE,51,4.0,5.0,81,0.00,,OVC038,1.57,508.00,VWS V14.01,2013-08-19 19:14:00,
2013-08-19 15:19:00,75.8,68.8,29.99,North,11,3.0,6.0,79,0.00,,OVC038,1.57,573.00,VWS V14.01,2013-08-19 19:19:00,
2013-08-19 15:25:00,75.4,69.2,29.99,North,355,0.0,6.0,81,0.00,,OVC038,1.57,636.00,VWS V14.01,2013-08-19 19:25:00,
2013-08-19 15:30:00,75.1,68.9,29.99,North,355,0.0,6.0,81,0.00,,OVC038,1.57,640.00,VWS V14.01,2013-08-19 19:30:00,
2013-08-19 15:35:00,75.1,69.9,29.99,North,9,4.0,5.0,84,0.00,,OVC038,1.57,373.00,VWS V14.01,2013-08-19 19:35:00,
2013-08-19 15:40:00,75.1,69.2,29.99,NNW,335,3.0,5.0,82,0.00,,OVC038,1.57,376.00,VWS V14.01,2013-08-19 19:40:00,
2013-08-19 15:45:00,75.1,69.6,29.99,North,355,5.0,5.0,83,0.01,,OVC038,1.58,380.00,VWS V14.01,2013-08-19 19:45:00,
2013-08-19 15:50:00,75.1,69.6,29.99,NNW,342,0.0,5.0,83,0.01,,OVC038,1.58,424.00,VWS V14.01,2013-08-19 19:50:00,
2013-08-19 15:55:00,75.1,69.9,29.99,NNW,340,0.0,5.0,84,0.01,,OVC038,1.58,369.00,VWS V14.01,2013-08-19 19:55:00,
2013-08-19 16:00:00,75.4,69.5,29.99,North,11,0.0,5.0,82,0.01,,OVC038,1.58,522.00,VWS V14.01,2013-08-19 20:00:00,
2013-08-19 16:04:00,75.6,69.4,29.98,North,11,4.0,5.0,81,0.01,,OVC027,1.58,262.00,VWS V14.01,2013-08-19 20:04:00,
2013-08-19 16:09:00,75.6,69.4,29.98,North,5,2.0,6.0,81,0.01,,OVC027,1.58,183.00,VWS V14.01,2013-08-19 20:09:00,
2013-08-19 16:14:00,75.6,69.4,29.98,NE,52,2.0,6.0,81,0.01,,OVC027,1.58,127.00,VWS V14.01,2013-08-19 20:14:00,
2013-08-19 16:19:00,76.0,69.8,29.97,SE,128,1.0,6.0,81,0.01,,OVC027,1.58,144.00,VWS V14.01,2013-08-19 20:19:00,
2013-08-19 16:24:00,76.0,68.7,29.97,SE,136,1.0,6.0,78,0.01,,OVC027,1.58,193.00,VWS V14.01,2013-08-19 20:24:00,
2013-08-19 16:29:00,76.1,68.8,29.97,SE,137,2.0,6.0,78,0.01,,OVC027,1.58,195.00,VWS V14.01,2013-08-19 20:29:00,
2013-08-19 16:30:00,75.1,69.2,29.99,North,355,0.0,6.0,82,0.00,,,1.57,640.00,VWS V14.01,2013-08-19 20:30:00,
2013-08-19 16:34:00,76.3,68.9,29.97,SE,142,0.0,7.0,78,0.01,,OVC027,1.58,160.00,VWS V14.01,2013-08-19 20:34:00,
2013-08-19 16:39:00,76.3,68.6,29.97,SE,138,3.0,7.0,77,0.01,,OVC027,1.58,199.00,VWS V14.01,2013-08-19 20:39:00,
2013-08-19 16:44:00,76.3,68.6,29.97,ESE,119,4.0,9.0,77,0.01,,OVC027,1.58,190.00,VWS V14.01,2013-08-19 20:44:00,
2013-08-19 16:49:00,76.5,68.8,29.97,SE,143,4.0,9.0,77,0.01,,OVC027,1.58,181.00,VWS V14.01,2013-08-19 20:49:00,
2013-08-19 16:54:00,76.3,68.2,29.97,SE,140,4.0,9.0,76,0.01,,OVC027,1.58,107.00,VWS V14.01,2013-08-19 20:54:00,
2013-08-19 16:59:00,76.3,68.9,29.97,SE,138,4.0,9.0,78,0.01,,OVC027,1.58,120.00,VWS V14.01,2013-08-19 20:59:00,
2013-08-19 17:00:00,75.4,69.5,29.98,NNE,13,0.0,5.0,82,0.01,,,1.58,522.00,VWS V14.01,2013-08-19 21:00:00,
2013-08-19 17:04:00,76.1,69.1,29.97,ESE,117,5.0,6.0,79,0.00,,OVC036,1.58,111.00,VWS V14.01,2013-08-19 21:04:00,
2013-08-19 17:09:00,76.1,68.4,29.97,ESE,105,2.0,9.0,77,0.00,,OVC036,1.58,121.00,VWS V14.01,2013-08-19 21:09:00,
2013-08-19 17:14:00,76.1,68.4,29.97,ESE,114,1.0,9.0,77,0.00,,OVC036,1.58,137.00,VWS V14.01,2013-08-19 21:14:00,
2013-08-19 17:19:00,76.1,68.4,29.97,ESE,120,4.0,9.0,77,0.00,,OVC036,1.58,107.00,VWS V14.01,2013-08-19 21:19:00,
2013-08-19 17:24:00,76.0,67.9,29.97,East,93,2.0,9.0,76,0.00,,OVC036,1.58,93.00,VWS V14.01,2013-08-19 21:24:00,
2013-08-19 17:29:00,76.0,68.3,29.97,East,96,1.0,9.0,77,0.00,,OVC036,1.58,77.00,VWS V14.01,2013-08-19 21:29:00,
2013-08-19 17:30:00,76.3,69.3,29.97,SE,140,5.0,6.0,79,0.01,,,1.58,195.00,VWS V14.01,2013-08-19 21:30:00,
2013-08-19 17:34:00,76.0,68.7,29.97,East,100,4.0,4.0,78,0.00,,OVC036,1.58,83.00,VWS V14.01,2013-08-19 21:34:00,
2013-08-19 17:39:00,76.0,67.9,29.97,East,88,0.0,6.0,76,0.00,,OVC036,1.58,86.00,VWS V14.01,2013-08-19 21:39:00,
2013-08-19 17:44:00,76.0,67.9,29.97,East,90,3.0,6.0,76,0.00,,OVC050,1.58,97.00,VWS V14.01,2013-08-19 21:44:00,
2013-08-19 17:49:00,76.1,68.8,29.96,East,92,3.0,6.0,78,0.00,,OVC050,1.58,116.00,VWS V14.01,2013-08-19 21:49:00,
2013-08-19 17:54:00,76.0,68.7,29.96,ESE,105,0.0,6.0,78,0.00,,OVC050,1.58,141.00,VWS V14.01,2013-08-19 21:54:00,
2013-08-19 17:59:00,76.0,68.3,29.96,ESE,110,0.0,6.0,77,0.00,,OVC050,1.58,107.00,VWS V14.01,2013-08-19 21:59:00,
2013-08-19 18:00:00,76.3,68.6,29.97,SE,138,3.0,9.0,77,0.01,,,1.58,118.00,VWS V14.01,2013-08-19 22:00:00,
2013-08-19 18:04:00,76.1,68.4,29.96,ESE,109,0.0,4.0,77,0.00,,OVC050,1.58,102.00,VWS V14.01,2013-08-19 22:04:00,
2013-08-19 18:09:00,76.1,68.0,29.96,ESE,112,1.0,5.0,76,0.00,,OVC050,1.58,121.00,VWS V14.01,2013-08-19 22:09:00,
2013-08-19 18:14:00,76.3,68.2,29.96,ESE,114,0.0,5.0,76,0.00,,OVC050,1.58,174.00,VWS V14.01,2013-08-19 22:14:00,
2013-08-19 18:19:00,76.5,69.1,29.96,ESE,115,0.0,5.0,78,0.00,,OVC050,1.58,165.00,VWS V14.01,2013-08-19 22:19:00,
2013-08-19 18:24:00,76.5,69.5,29.96,ESE,115,4.0,5.0,79,0.00,,OVC050,1.58,160.00,VWS V14.01,2013-08-19 22:24:00,
2013-08-19 18:29:00,76.5,69.5,29.96,ESE,111,2.0,5.0,79,0.00,,OVC050,1.58,141.00,VWS V14.01,2013-08-19 22:29:00,
2013-08-19 18:30:00,76.3,69.3,29.97,SE,140,5.0,6.0,79,0.01,,CLR,1.58,195.00,VWS V14.01,2013-08-19 22:30:00,
2013-08-19 18:34:00,76.3,69.3,29.96,ESE,111,2.0,4.0,79,0.00,,OVC050,1.58,134.00,VWS V14.01,2013-08-19 22:34:00,
2013-08-19 18:39:00,76.5,69.1,29.96,ESE,107,2.0,6.0,78,0.00,,OVC050,1.58,127.00,VWS V14.01,2013-08-19 22:39:00,
2013-08-19 18:44:00,76.3,69.3,29.96,ESE,112,2.0,6.0,79,0.00,,OVC050,1.58,127.00,VWS V14.01,2013-08-19 22:44:00,
2013-08-19 18:49:00,76.3,69.3,29.96,ESE,105,0.0,6.0,79,0.00,,OVC050,1.58,104.00,VWS V14.01,2013-08-19 22:49:00,
2013-08-19 18:54:00,76.5,69.1,29.96,ESE,115,0.0,6.0,78,0.00,,OVC050,1.58,93.00,VWS V14.01,2013-08-19 22:54:00,
2013-08-19 18:59:00,76.3,68.9,29.96,ESE,118,0.0,6.0,78,0.00,,OVC050,1.58,88.00,VWS V14.01,2013-08-19 22:59:00,
2013-08-19 19:00:00,76.0,68.7,29.96,ESE,110,0.0,6.0,78,0.00,,,1.58,100.00,VWS V14.01,2013-08-19 23:00:00,
2013-08-19 19:04:00,76.3,68.9,29.97,ESE,123,1.0,4.0,78,0.00,,BKN050,1.58,81.00,VWS V14.01,2013-08-19 23:04:00,
2013-08-19 19:09:00,76.1,68.8,29.97,SE,126,0.0,4.0,78,0.00,,BKN050,1.58,76.00,VWS V14.01,2013-08-19 23:09:00,
2013-08-19 19:14:00,76.1,68.8,29.97,SE,140,1.0,4.0,78,0.00,,BKN050,1.58,69.00,VWS V14.01,2013-08-19 23:14:00,
2013-08-19 19:19:00,76.3,68.9,29.97,SE,141,0.0,4.0,78,0.00,,BKN050,1.58,62.00,VWS V14.01,2013-08-19 23:19:00,
2013-08-19 19:24:00,76.3,68.9,29.97,SE,141,0.0,4.0,78,0.00,,BKN050,1.58,46.00,VWS V14.01,2013-08-19 23:24:00,
2013-08-19 19:29:00,76.3,68.9,29.97,ESE,120,3.0,4.0,78,0.00,,BKN050,1.58,37.00,VWS V14.01,2013-08-19 23:29:00,
2013-08-19 19:30:00,76.5,68.8,29.96,ESE,111,3.0,5.0,77,0.00,,,1.58,134.00,VWS V14.01,2013-08-19 23:30:00,
2013-08-19 19:34:00,76.5,69.9,29.97,ESE,108,2.0,5.0,80,0.00,,BKN050,1.58,26.00,VWS V14.01,2013-08-19 23:34:00,
2013-08-19 19:39:00,76.5,69.5,29.97,East,82,4.0,5.0,79,0.00,,BKN050,1.58,21.00,VWS V14.01,2013-08-19 23:39:00,
2013-08-19 19:44:00,76.3,68.9,29.97,ENE,72,4.0,5.0,78,0.00,,BKN050,1.58,18.00,VWS V14.01,2013-08-19 23:44:00,
2013-08-19 19:49:00,76.3,68.9,29.97,ENE,69,4.0,5.0,78,0.00,,BKN050,1.58,16.00,VWS V14.01,2013-08-19 23:49:00,
2013-08-19 19:54:00,76.1,69.1,29.97,ENE,65,5.0,5.0,79,0.00,,BKN050,1.58,16.00,VWS V14.01,2013-08-19 23:54:00,
2013-08-19 19:59:00,76.1,68.8,29.97,ENE,64,3.0,6.0,78,0.00,,BKN050,1.58,12.00,VWS V14.01,2013-08-19 23:59:00,
2013-08-19 20:00:00,76.3,68.9,29.97,ESE,122,0.0,6.0,78,0.00,,,1.58,84.00,VWS V14.01,2013-08-20 00:00:00,
2013-08-19 20:04:00,76.1,69.1,29.98,ENE,66,4.0,4.0,79,0.00,,CLR,1.58,9.00,VWS V14.01,2013-08-20 00:04:00,
2013-08-19 20:09:00,76.0,68.7,29.98,ENE,71,4.0,5.0,78,0.00,,CLR,1.58,7.00,VWS V14.01,2013-08-20 00:09:00,
2013-08-19 20:14:00,76.0,69.0,29.98,ENE,61,3.0,6.0,79,0.00,,CLR,1.58,5.00,VWS V14.01,2013-08-20 00:14:00,
2013-08-19 20:19:00,76.0,68.7,29.97,East,88,5.0,6.0,78,0.00,,CLR,1.58,0.00,VWS V14.01,2013-08-20 00:19:00,
2013-08-19 20:24:00,76.0,69.4,29.97,East,96,5.0,6.0,80,0.00,,CLR,1.58,0.00,VWS V14.01,2013-08-20 00:24:00,
2013-08-19 20:29:00,76.0,69.4,29.97,East,90,4.0,6.0,80,0.00,,CLR,1.58,0.00,VWS V14.01,2013-08-20 00:29:00,
2013-08-19 20:30:00,76.3,69.7,29.97,ESE,117,0.0,4.0,80,0.00,,,1.58,33.00,VWS V14.01,2013-08-20 00:30:00,
2013-08-19 20:34:00,76.0,69.4,29.98,East,86,3.0,5.0,80,0.00,,CLR,1.58,0.00,VWS V14.01,2013-08-20 00:34:00,
2013-08-19 20:39:00,75.8,68.8,29.98,East,88,3.0,5.0,79,0.00,,CLR,1.58,0.00,VWS V14.01,2013-08-20 00:39:00,
2013-08-19 20:44:00,75.8,69.2,29.98,East,87,3.0,5.0,80,0.00,,CLR,1.58,0.00,VWS V14.01,2013-08-20 00:44:00,
2013-08-19 20:49:00,75.8,68.8,29.98,East,84,4.0,5.0,79,0.00,,CLR,1.58,0.00,VWS V14.01,2013-08-20 00:49:00,
2013-08-19 20:54:00,75.8,69.2,29.98,ENE,73,4.0,5.0,80,0.00,,CLR,1.58,0.00,VWS V14.01,2013-08-20 00:54:00,
2013-08-19 20:59:00,75.8,69.2,29.98,ENE,59,3.0,5.0,80,0.00,,CLR,1.58,0.00,VWS V14.01,2013-08-20 00:59:00,
2013-08-19 21:00:00,76.1,68.4,29.98,ENE,64,2.0,6.0,77,0.00,,,1.58,12.00,VWS V14.01,2013-08-20 01:00:00,
2013-08-19 21:04:00,75.8,69.6,29.98,NE,55,5.0,5.0,81,0.00,,CLR,1.58,0.00,VWS V14.01,2013-08-20 01:04:00,
2013-08-19 21:09:00,75.8,69.2,29.98,NE,54,4.0,5.0,80,0.00,,CLR,1.58,0.00,VWS V14.01,2013-08-20 01:09:00,
2013-08-19 21:14:00,75.8,69.2,29.98,ENE,62,3.0,5.0,80,0.00,,CLR,1.58,0.00,VWS V14.01,2013-08-20 01:14:00,
2013-08-19 21:19:00,75.8,69.6,29.98,ENE,73,5.0,6.0,81,0.00,,CLR,1.58,0.00,VWS V14.01,2013-08-20 01:19:00,
2013-08-19 21:24:00,75.6,70.1,29.98,ENE,74,3.0,6.0,83,0.00,,CLR,1.58,0.00,VWS V14.01,2013-08-20 01:24:00,
2013-08-19 21:29:00,75.6,70.1,29.98,ENE,71,4.0,6.0,83,0.00,,CLR,1.58,0.00,VWS V14.01,2013-08-20 01:29:00,
2013-08-19 21:30:00,76.0,69.4,29.98,East,86,3.0,6.0,80,0.00,,,1.58,0.00,VWS V14.01,2013-08-20 01:30:00,
2013-08-19 21:34:00,75.4,69.5,29.99,NE,46,2.0,5.0,82,0.00,,CLR,1.58,0.00,VWS V14.01,2013-08-20 01:34:00,
2013-08-19 21:39:00,75.4,70.6,29.99,ENE,58,4.0,6.0,85,0.00,,CLR,1.58,0.00,VWS V14.01,2013-08-20 01:39:00,
2013-08-19 21:44:00,75.4,70.6,29.99,NE,53,3.0,6.0,85,0.00,,CLR,1.58,0.00,VWS V14.01,2013-08-20 01:44:00,
2013-08-19 21:49:00,75.3,70.8,29.99,NE,49,5.0,6.0,86,0.00,,CLR,1.58,0.00,VWS V14.01,2013-08-20 01:49:00,
2013-08-19 21:54:00,75.3,71.2,29.99,NNE,24,2.0,6.0,87,0.00,,CLR,1.58,0.00,VWS V14.01,2013-08-20 01:54:00,
2013-08-19 21:59:00,75.3,70.8,29.99,NE,40,0.0,6.0,86,0.00,,CLR,1.58,0.00,VWS V14.01,2013-08-20 01:59:00,
2013-08-19 22:00:00,75.8,68.8,29.98,ENE,57,2.0,5.0,79,0.00,,,1.58,0.00,VWS V14.01,2013-08-20 02:00:00,
2013-08-19 22:04:00,75.3,71.2,29.99,North,5,3.0,6.0,87,0.00,,CLR,1.58,0.00,VWS V14.01,2013-08-20 02:04:00,
2013-08-19 22:09:00,75.1,71.3,29.99,NNE,13,0.0,6.0,88,0.00,,CLR,1.58,0.00,VWS V14.01,2013-08-20 02:09:00,
2013-08-19 22:14:00,74.9,71.1,29.99,NE,40,4.0,6.0,88,0.00,,CLR,1.58,0.00,VWS V14.01,2013-08-20 02:14:00,
2013-08-19 22:19:00,74.9,71.1,29.99,NNE,16,6.0,6.0,88,0.00,,CLR,1.58,0.00,VWS V14.01,2013-08-20 02:19:00,
2013-08-19 22:24:00,74.9,71.4,29.99,NNE,20,4.0,7.0,89,0.00,,CLR,1.58,0.00,VWS V14.01,2013-08-20 02:24:00,
2013-08-19 22:29:00,74.9,71.4,29.99,NE,34,5.0,7.0,89,0.00,,CLR,1.58,0.00,VWS V14.01,2013-08-20 02:29:00,
2013-08-19 22:30:00,75.4,69.9,29.99,NE,49,3.0,6.0,83,0.00,,,1.58,0.00,VWS V14.01,2013-08-20 02:30:00,
2013-08-19 22:34:00,74.7,70.9,30.00,NE,35,4.0,6.0,88,0.00,,CLR,1.58,0.00,VWS V14.01,2013-08-20 02:34:00,
2013-08-19 22:39:00,74.7,70.2,30.00,ENE,62,5.0,6.0,86,0.00,,CLR,1.58,0.00,VWS V14.01,2013-08-20 02:39:00,
2013-08-19 22:44:00,74.6,70.1,30.00,ENE,58,4.0,7.0,86,0.00,,CLR,1.58,0.00,VWS V14.01,2013-08-20 02:44:00,
2013-08-19 22:49:00,74.4,70.3,30.00,ENE,76,4.0,7.0,87,0.00,,CLR,1.58,0.00,VWS V14.01,2013-08-20 02:49:00,
2013-08-19 22:54:00,74.4,70.3,30.00,NE,55,4.0,7.0,87,0.00,,CLR,1.58,0.00,VWS V14.01,2013-08-20 02:54:00,
2013-08-19 22:59:00,74.4,70.3,30.00,NE,34,5.0,7.0,87,0.00,,CLR,1.58,0.00,VWS V14.01,2013-08-20 02:59:00,
2013-08-19 23:00:00,75.3,71.2,29.99,NNE,24,0.0,6.0,87,0.00,,,1.58,0.00,VWS V14.01,2013-08-20 03:00:00,
2013-08-19 23:04:00,74.4,69.6,30.01,NE,49,5.0,7.0,85,0.00,,BKN025,0.00,0.00,VWS V14.01,2013-08-20 03:04:00,
2013-08-19 23:09:00,74.4,69.9,30.01,NE,40,3.0,7.0,86,0.00,,BKN025,0.00,0.00,VWS V14.01,2013-08-20 03:09:00,
2013-08-19 23:14:00,74.6,70.1,30.01,NNE,19,4.0,7.0,86,0.00,,BKN025,0.00,0.00,VWS V14.01,2013-08-20 03:14:00,
2013-08-19 23:19:00,74.6,70.1,30.00,NNE,30,4.0,7.0,86,0.00,,BKN025,0.00,0.00,VWS V14.01,2013-08-20 03:19:00,
2013-08-19 23:24:00,74.4,69.9,30.00,NNE,28,3.0,7.0,86,0.00,,BKN025,0.00,0.00,VWS V14.01,2013-08-20 03:24:00,
2013-08-19 23:29:00,74.4,69.9,30.00,NNE,32,4.0,7.0,86,0.00,,BKN025,0.00,0.00,VWS V14.01,2013-08-20 03:29:00,
2013-08-19 23:30:00,74.9,71.4,30.00,NE,51,4.0,7.0,89,0.00,,,1.58,0.00,VWS V14.01,2013-08-20 03:30:00,
2013-08-19 23:34:00,74.4,69.9,30.01,NE,47,3.0,5.0,86,0.00,,BKN025,0.00,0.00,VWS V14.01,2013-08-20 03:34:00,
2013-08-19 23:39:00,74.4,70.3,30.01,NE,40,0.0,5.0,87,0.00,,BKN025,0.00,0.00,VWS V14.01,2013-08-20 03:39:00,
2013-08-19 23:44:00,74.4,71.3,30.01,NNE,13,1.0,5.0,90,0.00,,BKN025,0.00,0.00,VWS V14.01,2013-08-20 03:44:00,
2013-08-19 23:49:00,74.0,71.2,30.01,North,5,0.0,5.0,91,0.00,,BKN025,0.00,0.00,VWS V14.01,2013-08-20 03:49:00,
2013-08-19 23:54:00,73.9,71.1,30.01,North,11,0.0,5.0,91,0.00,,BKN025,0.00,0.00,VWS V14.01,2013-08-20 03:54:00,
2013-08-19 23:59:00,73.7,70.9,30.01,NNE,15,0.0,5.0,91,0.00,,BKN025,0.00,0.00,VWS V14.01,2013-08-20 03:59:00,